Terminal Aerodrome Forecast
Issued by NWS Oklahoma City, OK

Home | Current Version | Previous Version | Text Only | Print | Product List | Glossary On
Versions: 1 2 3 4 5 6 7 8 9 10 11 12 13 14 15 16 17 18 19 20 21 22 23
000
FTUS44 KOUN 251129
TAFOUN
TAF
KOUN 251129Z 2512/2612 35009KT P6SM SCT100 BKN250
     FM251400 04008KT P6SM SCT080 BKN250
     FM251700 12009KT P6SM BKN060 BKN120 PROB30 2521/2601 4SM TSRA
      BKN040CB
     FM260100 12007KT P6SM BKN070 BKN150 PROB30 2601/2604 3SM TSRA
      BKN050CB=

USA.gov is the U.S. government's official web portal to all federal, state and local government web resources and services.